createdAt,value
2018-08-02T00:00:22.193Z,980.29
2018-08-02T00:01:22.139Z,980.26
2018-08-02T00:02:22.054Z,980.28
2018-08-02T00:03:21.993Z,980.30
2018-08-02T00:04:21.919Z,980.30
2018-08-02T00:05:21.846Z,980.30
2018-08-02T00:06:21.776Z,980.30
2018-08-02T00:07:21.738Z,980.28
2018-08-02T00:08:21.641Z,980.25
2018-08-02T00:09:21.572Z,980.23
2018-08-02T00:10:21.500Z,980.22
2018-08-02T00:11:21.429Z,980.18
2018-08-02T00:12:21.365Z,980.17
2018-08-02T00:13:21.299Z,980.14
2018-08-02T00:14:21.225Z,980.15
2018-08-02T00:15:21.160Z,980.12
2018-08-02T00:16:21.093Z,980.11
2018-08-02T00:17:21.019Z,980.13
2018-08-02T00:18:20.949Z,980.13
2018-08-02T00:19:20.880Z,980.11
2018-08-02T00:20:20.811Z,980.11
2018-08-02T00:21:20.740Z,980.17
2018-08-02T00:22:20.674Z,980.13
2018-08-02T00:23:20.604Z,980.16
2018-08-02T00:24:20.539Z,980.14
2018-08-02T00:25:20.467Z,980.13
2018-08-02T00:26:20.401Z,980.13
2018-08-02T00:27:20.345Z,980.13
2018-08-02T00:28:20.271Z,980.15
2018-08-02T00:29:20.191Z,980.14
2018-08-02T00:30:20.124Z,980.17
2018-08-02T00:31:20.070Z,980.16
2018-08-02T00:32:19.983Z,980.18
2018-08-02T00:33:19.916Z,980.13
2018-08-02T00:34:19.855Z,980.12
2018-08-02T00:35:19.777Z,980.18
2018-08-02T00:36:19.712Z,980.16
2018-08-02T00:37:19.637Z,980.15
2018-08-02T00:38:19.572Z,980.16
2018-08-02T00:39:19.499Z,980.16
2018-08-02T00:40:19.433Z,980.17
2018-08-02T00:41:19.362Z,980.18
2018-08-02T00:42:19.292Z,980.14
2018-08-02T00:43:19.226Z,980.14
2018-08-02T00:44:19.155Z,980.13
2018-08-02T00:45:19.087Z,980.12
2018-08-02T00:46:19.031Z,980.11
2018-08-02T00:47:18.954Z,980.10
2018-08-02T00:48:18.880Z,980.09
2018-08-02T00:49:18.810Z,980.10
2018-08-02T00:50:18.754Z,980.12
2018-08-02T00:51:18.671Z,980.12
2018-08-02T00:52:18.603Z,980.17
2018-08-02T00:53:18.533Z,980.21
2018-08-02T00:54:18.487Z,980.30
2018-08-02T00:55:18.394Z,980.41
2018-08-02T00:56:18.328Z,980.45
2018-08-02T00:57:18.261Z,980.50
2018-08-02T00:58:18.197Z,980.55
2018-08-02T00:59:18.127Z,980.50
2018-08-02T01:00:18.049Z,980.44
2018-08-02T01:01:17.982Z,980.38
2018-08-02T01:02:17.912Z,980.38
2018-08-02T01:03:17.846Z,980.43
2018-08-02T01:04:17.772Z,980.52
2018-08-02T01:05:17.712Z,980.52
2018-08-02T01:06:17.665Z,980.54
2018-08-02T01:07:17.567Z,980.53
2018-08-02T01:08:17.496Z,980.54
2018-08-02T01:09:17.424Z,980.53
2018-08-02T01:10:17.369Z,980.55
2018-08-02T01:11:17.283Z,980.58
2018-08-02T01:12:17.216Z,980.56
2018-08-02T01:13:17.145Z,980.55
2018-08-02T01:14:17.098Z,980.51
2018-08-02T01:15:17.006Z,980.47
2018-08-02T01:16:16.952Z,980.48
2018-08-02T01:17:16.875Z,980.53
2018-08-02T01:18:16.796Z,980.60
2018-08-02T01:19:16.728Z,980.70
2018-08-02T01:20:16.658Z,980.66
2018-08-02T01:21:16.596Z,980.68
2018-08-02T01:22:16.516Z,980.63
2018-08-02T01:23:16.458Z,980.64
2018-08-02T01:24:16.376Z,980.65
2018-08-02T01:25:16.318Z,980.66
2018-08-02T01:26:16.235Z,980.59
2018-08-02T01:27:16.169Z,980.56
2018-08-02T01:28:16.099Z,980.61
2018-08-02T01:29:16.031Z,980.56
2018-08-02T01:30:15.962Z,980.48
2018-08-02T01:31:15.890Z,980.51
2018-08-02T01:32:15.823Z,980.49
2018-08-02T01:33:15.753Z,980.50
2018-08-02T01:34:15.679Z,980.46
2018-08-02T01:35:15.615Z,980.45
2018-08-02T01:36:15.541Z,980.49
2018-08-02T01:37:15.472Z,980.49
2018-08-02T01:38:15.407Z,980.47
2018-08-02T01:39:15.343Z,980.48
2018-08-02T01:40:15.261Z,980.42
2018-08-02T01:41:15.224Z,980.44
2018-08-02T01:42:15.121Z,980.45
2018-08-02T01:43:15.052Z,980.43
2018-08-02T01:44:14.983Z,980.45
2018-08-02T01:45:14.928Z,980.48
2018-08-02T01:46:14.844Z,980.47
2018-08-02T01:47:14.772Z,980.42
2018-08-02T01:48:14.703Z,980.45
2018-08-02T01:49:14.634Z,980.45
2018-08-02T01:50:14.565Z,980.46
2018-08-02T01:51:14.494Z,980.51
2018-08-02T01:52:14.421Z,980.50
2018-08-02T01:53:14.352Z,980.51
2018-08-02T01:54:14.292Z,980.53
2018-08-02T01:55:14.212Z,980.49
2018-08-02T01:56:14.142Z,980.55
2018-08-02T01:57:14.071Z,980.54
2018-08-02T01:58:14.003Z,980.54
2018-08-02T01:59:13.933Z,980.56
2018-08-02T02:00:13.860Z,980.52
2018-08-02T02:01:13.795Z,980.55
2018-08-02T02:02:13.739Z,980.56
2018-08-02T02:03:13.651Z,980.54
2018-08-02T02:04:13.581Z,980.48
2018-08-02T02:05:13.510Z,980.53
2018-08-02T02:06:13.441Z,980.51
2018-08-02T02:07:13.371Z,980.57
2018-08-02T02:08:13.307Z,980.56
2018-08-02T02:09:13.228Z,980.54
2018-08-02T02:10:13.160Z,980.54
2018-08-02T02:11:13.093Z,980.53
2018-08-02T02:12:13.027Z,980.54
2018-08-02T02:13:12.948Z,980.56
2018-08-02T02:14:12.903Z,980.54
2018-08-02T02:15:12.813Z,980.58
2018-08-02T02:16:12.742Z,980.58
2018-08-02T02:17:12.672Z,980.58
2018-08-02T02:18:12.605Z,980.61
2018-08-02T02:19:12.536Z,980.62
2018-08-02T02:20:12.459Z,980.64
2018-08-02T02:21:12.389Z,980.64
2018-08-02T02:22:12.320Z,980.68
2018-08-02T02:23:12.249Z,980.68
2018-08-02T02:24:12.179Z,980.67
2018-08-02T02:25:12.109Z,980.72
2018-08-02T02:26:12.052Z,980.68
2018-08-02T02:27:11.971Z,980.67
2018-08-02T02:28:11.900Z,980.69
2018-08-02T02:29:11.829Z,980.68
2018-08-02T02:30:11.767Z,980.65
2018-08-02T02:31:11.693Z,980.66
2018-08-02T02:32:11.620Z,980.66
2018-08-02T02:33:11.550Z,980.72
2018-08-02T02:34:11.479Z,980.68
2018-08-02T02:35:11.410Z,980.74
2018-08-02T02:36:11.335Z,980.71
2018-08-02T02:37:11.267Z,980.75
2018-08-02T02:38:11.196Z,980.66
2018-08-02T02:39:11.130Z,980.63
2018-08-02T02:40:11.054Z,980.64
2018-08-02T02:41:10.981Z,980.65
2018-08-02T02:42:10.948Z,980.64
2018-08-02T02:43:10.844Z,980.61
2018-08-02T02:44:10.771Z,980.65
2018-08-02T02:45:10.701Z,980.67
2018-08-02T02:46:10.630Z,980.66
2018-08-02T02:47:10.570Z,980.66
2018-08-02T02:48:10.491Z,980.68
2018-08-02T02:49:10.419Z,980.68
2018-08-02T02:50:10.348Z,980.72
2018-08-02T02:51:10.290Z,980.72
2018-08-02T02:52:10.209Z,980.70
2018-08-02T02:53:10.167Z,980.75
2018-08-02T02:54:10.070Z,980.78
2018-08-02T02:55:09.997Z,980.78
2018-08-02T02:56:10.001Z,980.81
2018-08-02T02:57:09.856Z,980.83
2018-08-02T02:58:09.826Z,980.87
2018-08-02T02:59:09.715Z,980.86
2018-08-02T03:00:09.660Z,980.84
2018-08-02T03:01:09.579Z,980.85
2018-08-02T03:02:09.531Z,980.81
2018-08-02T03:03:09.447Z,980.87
2018-08-02T03:04:09.363Z,980.88
2018-08-02T03:05:09.289Z,980.88
2018-08-02T03:06:10.195Z,980.88
2018-08-02T03:07:09.148Z,980.87
2018-08-02T03:08:09.094Z,980.89
2018-08-02T03:09:09.006Z,980.90
2018-08-02T03:10:08.985Z,980.90
2018-08-02T03:11:08.865Z,980.91
2018-08-02T03:12:08.798Z,980.96
2018-08-02T03:13:08.724Z,980.92
2018-08-02T03:14:08.652Z,980.90
2018-08-02T03:15:08.582Z,980.91
2018-08-02T03:16:08.516Z,980.93
2018-08-02T03:17:08.441Z,981.02
2018-08-02T03:18:09.204Z,981.05
2018-08-02T03:19:08.336Z,981.06
2018-08-02T03:20:08.245Z,981.09
2018-08-02T03:21:08.161Z,981.10
2018-08-02T03:22:08.085Z,981.07
2018-08-02T03:23:08.063Z,981.07
2018-08-02T03:24:07.946Z,981.08
2018-08-02T03:25:07.874Z,981.08
2018-08-02T03:26:07.804Z,981.08
2018-08-02T03:27:07.732Z,981.07
2018-08-02T03:28:07.663Z,981.09
2018-08-02T03:29:07.593Z,981.17
2018-08-02T03:30:07.580Z,981.23
2018-08-02T03:31:07.458Z,981.27
2018-08-02T03:32:07.381Z,981.27
2018-08-02T03:33:07.317Z,981.30
2018-08-02T03:34:07.277Z,981.31
2018-08-02T03:35:07.167Z,981.29
2018-08-02T03:36:07.097Z,981.28
2018-08-02T03:37:07.027Z,981.28
2018-08-02T03:38:06.961Z,981.30
2018-08-02T03:39:06.903Z,981.29
2018-08-02T03:40:06.820Z,981.29
2018-08-02T03:41:06.743Z,981.29
2018-08-02T03:42:06.674Z,981.30
2018-08-02T03:43:06.624Z,981.33
2018-08-02T03:44:06.552Z,981.31
2018-08-02T03:45:06.462Z,981.34
2018-08-02T03:46:06.391Z,981.29
2018-08-02T03:47:06.331Z,981.27
2018-08-02T03:48:06.257Z,981.25
2018-08-02T03:49:06.181Z,981.24
2018-08-02T03:50:06.109Z,981.28
2018-08-02T03:51:06.038Z,981.25
2018-08-02T03:52:05.968Z,981.29
2018-08-02T03:53:05.894Z,981.26
2018-08-02T03:54:05.840Z,981.31
2018-08-02T03:55:12.917Z,981.33
2018-08-02T03:57:09.632Z,981.31
2018-08-02T03:58:09.511Z,981.34
2018-08-02T04:00:13.341Z,981.35
2018-08-02T04:01:13.269Z,981.35
2018-08-02T04:03:17.149Z,981.35
2018-08-02T04:04:17.026Z,981.34
2018-08-02T04:06:20.859Z,981.35
2018-08-02T04:07:20.782Z,981.38
2018-08-02T04:09:24.667Z,981.41
2018-08-02T04:10:24.545Z,981.38
2018-08-02T04:12:28.458Z,981.42
2018-08-02T04:13:28.305Z,981.43
2018-08-02T04:14:28.339Z,981.41
2018-08-02T04:15:28.163Z,981.40
2018-08-02T04:16:28.093Z,981.39
2018-08-02T04:17:28.022Z,981.39
2018-08-02T04:18:27.949Z,981.39
2018-08-02T04:19:27.880Z,981.42
2018-08-02T04:20:27.842Z,981.42
2018-08-02T04:21:27.737Z,981.39
2018-08-02T04:22:27.669Z,981.38
2018-08-02T04:23:27.627Z,981.35
2018-08-02T04:24:27.550Z,981.40
2018-08-02T04:25:27.461Z,981.39
2018-08-02T04:26:27.397Z,981.39
2018-08-02T04:27:27.312Z,981.37
2018-08-02T04:28:27.254Z,981.40
2018-08-02T04:29:27.231Z,981.41
2018-08-02T04:30:27.101Z,981.46
2018-08-02T04:31:27.031Z,981.49
2018-08-02T04:32:26.966Z,981.49
2018-08-02T04:33:26.889Z,981.50
2018-08-02T04:34:26.819Z,981.49
2018-08-02T04:35:26.749Z,981.42
2018-08-02T04:36:26.681Z,981.46
2018-08-02T04:37:26.608Z,981.43
2018-08-02T04:38:26.551Z,981.41
2018-08-02T04:39:26.465Z,981.40
2018-08-02T04:40:26.405Z,981.44
2018-08-02T04:41:26.327Z,981.39
2018-08-02T04:42:26.273Z,981.37
2018-08-02T04:43:26.184Z,981.38
2018-08-02T04:44:26.115Z,981.40
2018-08-02T04:45:26.042Z,981.41
2018-08-02T04:46:25.977Z,981.39
2018-08-02T04:47:25.901Z,981.42
2018-08-02T04:48:25.853Z,981.44
2018-08-02T04:49:25.765Z,981.45
2018-08-02T04:50:25.692Z,981.45
2018-08-02T04:51:25.655Z,981.43
2018-08-02T04:52:25.547Z,981.48
2018-08-02T04:53:25.479Z,981.47
2018-08-02T04:54:25.411Z,981.49
2018-08-02T04:55:25.353Z,981.49
2018-08-02T04:56:25.315Z,981.47
2018-08-02T04:57:25.214Z,981.47
2018-08-02T04:58:25.123Z,981.52
2018-08-02T04:59:25.082Z,981.51
2018-08-02T05:00:24.981Z,981.54
2018-08-02T05:01:25.003Z,981.56
2018-08-02T05:02:24.841Z,981.59
2018-08-02T05:03:24.768Z,981.59
2018-08-02T05:04:24.699Z,981.59
2018-08-02T05:05:24.630Z,981.58
2018-08-02T05:06:24.561Z,981.58
2018-08-02T05:07:24.490Z,981.56
2018-08-02T05:08:24.416Z,981.56
2018-08-02T05:09:24.353Z,981.55
2018-08-02T05:10:24.276Z,981.58
2018-08-02T05:11:24.205Z,981.60
2018-08-02T05:12:24.149Z,981.63
2018-08-02T05:13:24.086Z,981.64
2018-08-02T05:14:23.997Z,981.62
2018-08-02T05:15:23.929Z,981.65
2018-08-02T05:16:23.851Z,981.65
2018-08-02T05:17:23.781Z,981.65
2018-08-02T05:18:24.459Z,981.67
2018-08-02T05:19:23.664Z,981.68
2018-08-02T05:20:23.574Z,981.71
2018-08-02T05:21:23.500Z,981.69
2018-08-02T05:22:23.477Z,981.74
2018-08-02T05:23:23.363Z,981.74
2018-08-02T05:24:23.290Z,981.76
2018-08-02T05:25:23.218Z,981.73
2018-08-02T05:26:23.189Z,981.75
2018-08-02T05:27:23.082Z,981.75
2018-08-02T05:28:23.006Z,981.76
2018-08-02T05:29:22.935Z,981.76
2018-08-02T05:30:22.869Z,981.78
2018-08-02T05:31:22.816Z,981.76
2018-08-02T05:32:22.731Z,981.80
2018-08-02T05:33:22.655Z,981.83
2018-08-02T05:34:22.775Z,981.84
2018-08-02T05:35:22.784Z,981.83
2018-08-02T05:36:22.774Z,981.83
2018-08-02T05:37:22.372Z,981.85
2018-08-02T05:38:22.301Z,981.83
2018-08-02T05:39:22.231Z,981.84
2018-08-02T05:40:22.161Z,981.84
2018-08-02T05:41:22.093Z,981.86
2018-08-02T05:42:22.022Z,981.83
2018-08-02T05:43:21.948Z,981.83
2018-08-02T05:44:21.879Z,981.83
2018-08-02T05:45:21.815Z,981.82
2018-08-02T05:46:21.739Z,981.85
2018-08-02T05:47:21.667Z,981.84
2018-08-02T05:48:21.598Z,981.86
2018-08-02T05:49:21.539Z,981.80
2018-08-02T05:50:21.460Z,981.87
2018-08-02T05:51:21.408Z,981.84
2018-08-02T05:52:21.315Z,981.89
2018-08-02T05:53:21.249Z,981.90
2018-08-02T05:54:21.182Z,981.92
2018-08-02T05:55:21.106Z,981.93
2018-08-02T05:56:21.062Z,981.93
2018-08-02T05:57:20.968Z,981.89
2018-08-02T05:58:20.900Z,981.93
2018-08-02T05:59:20.824Z,981.89
2018-08-02T06:00:20.768Z,981.90
2018-08-02T06:01:20.684Z,981.89
2018-08-02T06:02:20.615Z,981.91
2018-08-02T06:03:20.559Z,981.94
2018-08-02T06:04:20.473Z,981.98
2018-08-02T06:05:20.452Z,981.95
2018-08-02T06:06:20.356Z,981.94
2018-08-02T06:07:20.263Z,981.94
2018-08-02T06:08:20.194Z,981.97
2018-08-02T06:09:20.125Z,981.94
2018-08-02T06:10:20.056Z,981.95
2018-08-02T06:11:19.983Z,981.98
2018-08-02T06:12:19.914Z,981.97
2018-08-02T06:13:19.854Z,981.98
2018-08-02T06:14:19.775Z,982.04
2018-08-02T06:15:19.702Z,982.01
2018-08-02T06:16:19.637Z,982.07
2018-08-02T06:17:19.564Z,982.07
2018-08-02T06:18:19.495Z,982.08
2018-08-02T06:19:19.425Z,982.08
2018-08-02T06:20:19.356Z,982.10
2018-08-02T06:21:19.284Z,982.09
2018-08-02T06:22:19.217Z,982.11
2018-08-02T06:23:19.145Z,982.11
2018-08-02T06:24:19.074Z,982.16
2018-08-02T06:25:19.007Z,982.17
2018-08-02T06:26:18.970Z,982.15
2018-08-02T06:27:18.865Z,982.13
2018-08-02T06:28:18.840Z,982.15
2018-08-02T06:29:18.729Z,982.14
2018-08-02T06:30:18.712Z,982.14
2018-08-02T06:31:18.586Z,982.10
2018-08-02T06:32:18.527Z,982.13
2018-08-02T06:33:18.447Z,982.15
2018-08-02T06:34:18.378Z,982.17
2018-08-02T06:35:18.308Z,982.20
2018-08-02T06:36:18.250Z,982.18
2018-08-02T06:37:18.173Z,982.21
2018-08-02T06:38:18.098Z,982.23
2018-08-02T06:39:18.042Z,982.20
2018-08-02T06:40:17.962Z,982.19
2018-08-02T06:41:17.891Z,982.18
2018-08-02T06:42:17.831Z,982.17
2018-08-02T06:43:17.754Z,982.17
2018-08-02T06:44:17.684Z,982.17
2018-08-02T06:45:17.613Z,982.25
2018-08-02T06:46:17.547Z,982.22
2018-08-02T06:47:17.478Z,982.28
2018-08-02T06:48:17.404Z,982.26
2018-08-02T06:49:17.335Z,982.29
2018-08-02T06:50:17.265Z,982.33
2018-08-02T06:51:17.215Z,982.34
2018-08-02T06:52:17.126Z,982.32
2018-08-02T06:53:17.059Z,982.38
2018-08-02T06:54:17.005Z,982.34
2018-08-02T06:55:16.937Z,982.35
2018-08-02T06:56:16.849Z,982.36
2018-08-02T06:57:16.783Z,982.37
2018-08-02T06:58:16.709Z,982.36
2018-08-02T06:59:16.666Z,982.38
2018-08-02T07:00:16.580Z,982.39
2018-08-02T07:01:16.503Z,982.41
2018-08-02T07:02:16.433Z,982.40
2018-08-02T07:03:16.367Z,982.47
2018-08-02T07:04:16.297Z,982.45
2018-08-02T07:05:16.225Z,982.42
2018-08-02T07:06:16.161Z,982.40
2018-08-02T07:07:16.088Z,982.40
2018-08-02T07:08:16.037Z,982.42
2018-08-02T07:09:15.974Z,982.41
2018-08-02T07:10:15.882Z,982.41
2018-08-02T07:11:15.818Z,982.40
2018-08-02T07:12:15.759Z,982.42
2018-08-02T07:13:15.689Z,982.41
2018-08-02T07:14:15.617Z,982.39
2018-08-02T07:15:15.534Z,982.40
2018-08-02T07:16:15.467Z,982.39
2018-08-02T07:17:15.399Z,982.39
2018-08-02T07:18:15.367Z,982.41
2018-08-02T07:19:15.266Z,982.40
2018-08-02T07:20:15.188Z,982.46
2018-08-02T07:21:15.143Z,982.47
2018-08-02T07:22:15.054Z,982.48
2018-08-02T07:23:14.982Z,982.50
2018-08-02T07:24:14.921Z,982.49
2018-08-02T07:25:14.851Z,982.51
2018-08-02T07:26:14.789Z,982.52
2018-08-02T07:27:14.711Z,982.51
2018-08-02T07:28:14.645Z,982.53
2018-08-02T07:29:14.574Z,982.49
2018-08-02T07:30:14.504Z,982.49
2018-08-02T07:31:14.436Z,982.48
2018-08-02T07:32:14.366Z,982.51
2018-08-02T07:33:14.302Z,982.55
2018-08-02T07:34:14.247Z,982.53
2018-08-02T07:35:14.163Z,982.52
2018-08-02T07:36:14.094Z,982.54
2018-08-02T07:37:14.024Z,982.51
2018-08-02T07:38:13.954Z,982.52
2018-08-02T07:39:13.895Z,982.56
2018-08-02T07:40:13.823Z,982.53
2018-08-02T07:41:13.756Z,982.54
2018-08-02T07:42:13.686Z,982.56
2018-08-02T07:43:13.776Z,982.54
2018-08-02T07:44:13.612Z,982.57
2018-08-02T07:45:13.476Z,982.54
2018-08-02T07:46:13.412Z,982.54
2018-08-02T07:47:13.341Z,982.54
2018-08-02T07:48:13.288Z,982.58
2018-08-02T07:49:13.209Z,982.58
2018-08-02T07:50:13.148Z,982.57
2018-08-02T07:51:13.068Z,982.57
2018-08-02T07:52:13.007Z,982.55
2018-08-02T07:53:12.937Z,982.56
2018-08-02T07:54:12.864Z,982.59
2018-08-02T07:55:12.796Z,982.61
2018-08-02T07:56:12.765Z,982.57
2018-08-02T07:57:12.662Z,982.61
2018-08-02T07:58:12.592Z,982.63
2018-08-02T07:59:12.526Z,982.63
2018-08-02T08:00:12.480Z,982.63
2018-08-02T08:01:12.387Z,982.66
2018-08-02T08:02:12.324Z,982.67
2018-08-02T08:03:12.303Z,982.67
2018-08-02T08:04:12.233Z,982.68
2018-08-02T08:05:12.151Z,982.63
2018-08-02T08:06:12.048Z,982.68
2018-08-02T08:07:12.000Z,982.62
2018-08-02T08:08:11.912Z,982.67
2018-08-02T08:09:11.850Z,982.65
2018-08-02T08:10:11.780Z,982.65
2018-08-02T08:11:11.777Z,982.62
2018-08-02T08:12:11.664Z,982.64
2018-08-02T08:13:11.573Z,982.64
2018-08-02T08:14:11.507Z,982.64
2018-08-02T08:15:11.440Z,982.64
2018-08-02T08:16:11.383Z,982.66
2018-08-02T08:17:11.323Z,982.64
2018-08-02T08:18:11.237Z,982.68
2018-08-02T08:19:11.188Z,982.67
2018-08-02T08:20:11.149Z,982.71
2018-08-02T08:21:11.039Z,982.70
2018-08-02T08:22:10.965Z,982.73
2018-08-02T08:23:10.940Z,982.72
2018-08-02T08:24:10.828Z,982.75
2018-08-02T08:25:10.776Z,982.77
2018-08-02T08:26:10.693Z,982.72
2018-08-02T08:27:10.624Z,982.72
2018-08-02T08:28:10.563Z,982.73
2018-08-02T08:29:10.493Z,982.75
2018-08-02T08:30:10.420Z,982.73
2018-08-02T08:31:11.002Z,982.75
2018-08-02T08:32:10.335Z,982.74
2018-08-02T08:33:10.223Z,982.74
2018-08-02T08:34:10.150Z,982.74
2018-08-02T08:35:10.089Z,982.77
2018-08-02T08:36:10.134Z,982.72
2018-08-02T08:37:23.260Z,982.74
2018-08-02T08:38:09.880Z,982.72
2018-08-02T08:39:09.826Z,982.71
2018-08-02T08:40:09.744Z,982.70
2018-08-02T08:41:09.677Z,982.71
2018-08-02T08:42:09.612Z,982.72
2018-08-02T08:43:09.543Z,982.74
2018-08-02T08:44:09.479Z,982.72
2018-08-02T08:45:09.407Z,982.73
2018-08-02T08:46:09.340Z,982.74
2018-08-02T08:47:09.316Z,982.72
2018-08-02T08:48:09.204Z,982.71
2018-08-02T08:49:09.139Z,982.73
2018-08-02T08:50:09.073Z,982.73
2018-08-02T08:51:09.003Z,982.73
2018-08-02T08:52:08.984Z,982.67
2018-08-02T08:53:08.870Z,982.68
2018-08-02T08:54:08.801Z,982.68
2018-08-02T08:55:08.732Z,982.71
2018-08-02T08:56:08.665Z,982.71
2018-08-02T08:57:08.596Z,982.65
2018-08-02T08:58:08.551Z,982.67
2018-08-02T08:59:08.466Z,982.68
2018-08-02T09:00:08.401Z,982.66
2018-08-02T09:01:08.328Z,982.68
2018-08-02T09:02:08.271Z,982.69
2018-08-02T09:03:08.236Z,982.69
2018-08-02T09:04:08.128Z,982.67
2018-08-02T09:05:08.071Z,982.66
2018-08-02T09:06:07.996Z,982.63
2018-08-02T09:07:07.923Z,982.67
2018-08-02T09:08:07.858Z,982.71
2018-08-02T09:09:07.795Z,982.69
2018-08-02T09:10:07.723Z,982.68
2018-08-02T09:11:07.660Z,982.67
2018-08-02T09:12:07.587Z,982.73
2018-08-02T09:13:07.519Z,982.69
2018-08-02T09:14:07.454Z,982.72
2018-08-02T09:15:07.384Z,982.68
2018-08-02T09:16:07.332Z,982.69
2018-08-02T09:17:07.253Z,982.68
2018-08-02T09:18:07.187Z,982.67
2018-08-02T09:19:07.119Z,982.68
2018-08-02T09:20:07.049Z,982.65
2018-08-02T09:21:06.986Z,982.65
2018-08-02T09:22:06.916Z,982.64
2018-08-02T09:23:06.848Z,982.64
2018-08-02T09:24:06.785Z,982.63
2018-08-02T09:25:06.723Z,982.62
2018-08-02T09:26:06.648Z,982.64
2018-08-02T09:27:06.634Z,982.67
2018-08-02T09:28:06.513Z,982.67
2018-08-02T09:29:06.446Z,982.68
2018-08-02T09:30:06.377Z,982.64
2018-08-02T09:31:06.311Z,982.64
2018-08-02T09:32:06.268Z,982.62
2018-08-02T09:33:06.243Z,982.62
2018-08-02T09:34:06.129Z,982.62
2018-08-02T09:35:06.043Z,982.59
2018-08-02T09:36:05.982Z,982.57
2018-08-02T09:37:05.912Z,982.56
2018-08-02T09:38:05.841Z,982.55
2018-08-02T09:39:05.776Z,982.51
2018-08-02T09:40:05.708Z,982.50
2018-08-02T09:41:05.646Z,982.52
2018-08-02T09:42:05.583Z,982.48
2018-08-02T09:43:05.507Z,982.48
2018-08-02T09:44:05.442Z,982.50
2018-08-02T09:45:05.379Z,982.46
2018-08-02T09:46:05.321Z,982.51
2018-08-02T09:47:05.246Z,982.52
2018-08-02T09:48:05.172Z,982.43
2018-08-02T09:49:05.109Z,982.52
2018-08-02T09:50:05.069Z,982.43
2018-08-02T09:51:04.970Z,982.44
2018-08-02T09:52:04.920Z,982.41
2018-08-02T09:53:04.840Z,982.45
2018-08-02T09:54:04.774Z,982.44
2018-08-02T09:55:04.706Z,982.45
2018-08-02T09:56:04.652Z,982.47
2018-08-02T09:57:04.574Z,982.42
2018-08-02T09:58:04.515Z,982.40
2018-08-02T09:59:04.452Z,982.45
2018-08-02T10:00:04.395Z,982.42
2018-08-02T10:01:04.304Z,982.44
2018-08-02T10:02:04.237Z,982.45
2018-08-02T10:03:04.171Z,982.42
2018-08-02T10:04:04.106Z,982.45
2018-08-02T10:05:04.051Z,982.35
2018-08-02T10:06:03.987Z,982.34
2018-08-02T10:07:03.902Z,982.39
2018-08-02T10:08:03.836Z,982.40
2018-08-02T10:09:03.775Z,982.42
2018-08-02T10:10:03.714Z,982.43
2018-08-02T10:11:03.648Z,982.38
2018-08-02T10:12:03.568Z,982.39
2018-08-02T10:13:03.502Z,982.35
2018-08-02T10:14:03.441Z,982.41
2018-08-02T10:15:03.372Z,982.39
2018-08-02T10:16:03.319Z,982.36
2018-08-02T10:17:03.237Z,982.32
2018-08-02T10:18:03.172Z,982.37
2018-08-02T10:19:03.107Z,982.32
2018-08-02T10:20:03.038Z,982.31
2018-08-02T10:21:02.970Z,982.31
2018-08-02T10:22:02.904Z,982.34
2018-08-02T10:23:02.843Z,982.37
2018-08-02T10:24:02.771Z,982.34
2018-08-02T10:25:02.706Z,982.30
2018-08-02T10:26:02.659Z,982.28
2018-08-02T10:27:02.574Z,982.26
2018-08-02T10:28:02.516Z,982.29
2018-08-02T10:29:02.438Z,982.23
2018-08-02T10:30:02.396Z,982.27
2018-08-02T10:31:02.346Z,982.25
2018-08-02T10:32:02.240Z,982.23
2018-08-02T10:33:02.173Z,982.27
2018-08-02T10:34:02.106Z,982.25
2018-08-02T10:35:02.053Z,982.18
2018-08-02T10:36:01.980Z,982.18
2018-08-02T10:37:01.913Z,982.19
2018-08-02T10:38:01.861Z,982.19
2018-08-02T10:39:01.772Z,982.20
2018-08-02T10:40:01.711Z,982.16
2018-08-02T10:41:01.641Z,982.16
2018-08-02T10:42:01.574Z,982.20
2018-08-02T10:43:01.508Z,982.17
2018-08-02T10:44:01.509Z,982.19
2018-08-02T10:45:01.385Z,982.15
2018-08-02T10:46:01.313Z,982.11
2018-08-02T10:47:01.256Z,982.14
2018-08-02T10:48:01.197Z,982.13
2018-08-02T10:49:01.119Z,982.15
2018-08-02T10:50:01.106Z,982.15
2018-08-02T10:51:15.561Z,982.10
2018-08-02T10:52:00.918Z,982.11
2018-08-02T10:53:00.850Z,982.13
2018-08-02T10:54:00.781Z,982.14
2018-08-02T10:55:01.041Z,982.16
2018-08-02T10:56:00.695Z,982.15
2018-08-02T10:57:00.589Z,982.13
2018-08-02T10:58:00.519Z,982.07
2018-08-02T10:59:00.461Z,982.10
2018-08-02T11:00:00.387Z,982.08
2018-08-02T11:01:00.323Z,982.09
2018-08-02T11:02:00.270Z,982.11
2018-08-02T11:03:00.193Z,982.11
2018-08-02T11:04:00.127Z,982.11
2018-08-02T11:05:00.064Z,982.09
2018-08-02T11:05:59.997Z,982.06
2018-08-02T11:06:59.968Z,982.06
2018-08-02T11:07:59.867Z,982.05
2018-08-02T11:08:59.800Z,981.98
2018-08-02T11:09:59.737Z,982.00
2018-08-02T11:10:59.670Z,981.99
2018-08-02T11:11:59.611Z,981.97
2018-08-02T11:12:59.539Z,981.99
2018-08-02T11:13:59.498Z,982.03
2018-08-02T11:14:59.408Z,982.02
2018-08-02T11:15:59.344Z,982.10
2018-08-02T11:16:59.278Z,982.09
2018-08-02T11:17:59.213Z,982.13
2018-08-02T11:18:59.183Z,982.07
2018-08-02T11:19:59.086Z,982.03
2018-08-02T11:20:59.038Z,982.04
2018-08-02T11:21:59.008Z,982.05
2018-08-02T11:22:58.889Z,982.05
2018-08-02T11:23:58.823Z,982.04
2018-08-02T11:24:58.757Z,982.06
2018-08-02T11:25:58.693Z,982.09
2018-08-02T11:26:58.628Z,982.07
2018-08-02T11:27:58.562Z,982.03
2018-08-02T11:28:58.512Z,981.93
2018-08-02T11:29:58.435Z,981.92
2018-08-02T11:30:58.371Z,981.95
2018-08-02T11:31:58.304Z,981.89
2018-08-02T11:32:58.245Z,981.90
2018-08-02T11:33:58.194Z,981.86
2018-08-02T11:34:58.109Z,981.86
2018-08-02T11:35:58.055Z,981.82
2018-08-02T11:36:57.981Z,981.81
2018-08-02T11:37:57.918Z,981.76
2018-08-02T11:38:57.852Z,981.73
2018-08-02T11:39:57.787Z,981.73
2018-08-02T11:40:57.722Z,981.69
2018-08-02T11:41:57.657Z,981.61
2018-08-02T11:42:57.594Z,981.67
2018-08-02T11:43:57.583Z,981.69
2018-08-02T11:44:57.463Z,981.67
2018-08-02T11:45:57.404Z,981.68
2018-08-02T11:46:57.337Z,981.69
2018-08-02T11:47:57.270Z,981.71
2018-08-02T11:48:57.207Z,981.68
2018-08-02T11:49:57.142Z,981.68
2018-08-02T11:50:57.082Z,981.68
2018-08-02T11:51:57.029Z,981.65
2018-08-02T11:52:56.948Z,981.64
2018-08-02T11:53:56.883Z,981.58
2018-08-02T11:54:56.818Z,981.55
2018-08-02T11:55:56.754Z,981.51
2018-08-02T11:56:56.848Z,981.50
2018-08-02T11:57:56.648Z,981.50
2018-08-02T11:58:56.576Z,981.48
2018-08-02T11:59:56.517Z,981.39
2018-08-02T12:00:56.435Z,981.41
2018-08-02T12:01:56.427Z,981.45
2018-08-02T12:02:56.315Z,981.42
2018-08-02T12:03:56.283Z,981.44
2018-08-02T12:04:56.179Z,981.38
2018-08-02T12:05:56.112Z,981.43
2018-08-02T12:06:56.049Z,981.35
2018-08-02T12:07:55.985Z,981.31
2018-08-02T12:08:55.926Z,981.32
2018-08-02T12:09:55.862Z,981.31
2018-08-02T12:10:55.793Z,981.31
2018-08-02T12:11:55.730Z,981.29
2018-08-02T12:12:55.668Z,981.35
2018-08-02T12:13:55.608Z,981.37
2018-08-02T12:14:55.569Z,981.41
2018-08-02T12:15:55.476Z,981.45
2018-08-02T12:16:55.441Z,981.41
2018-08-02T12:17:55.355Z,981.50
2018-08-02T12:18:55.286Z,981.43
2018-08-02T12:19:55.223Z,981.45
2018-08-02T12:20:55.164Z,981.49
2018-08-02T12:21:55.124Z,981.46
2018-08-02T12:22:55.037Z,981.51
2018-08-02T12:23:55.024Z,981.62
2018-08-02T12:24:54.909Z,981.65
2018-08-02T12:25:54.856Z,981.71
2018-08-02T12:26:54.786Z,981.74
2018-08-02T12:27:54.742Z,981.80
2018-08-02T12:28:54.677Z,981.84
2018-08-02T12:29:54.596Z,981.95
2018-08-02T12:30:54.538Z,982.08
2018-08-02T12:31:54.471Z,982.15
2018-08-02T12:32:54.410Z,982.27
2018-08-02T12:33:54.352Z,982.35